sensor_id;sensor_type;location;lat;lon;timestamp;pressure;altitude;pressure_sealevel;temperature;humidity
33185;BME280;19550;42.872;25.494;2023-08-08T00:01:10;96233.25;;;17.35;100.00
33185;BME280;19550;42.872;25.494;2023-08-08T00:03:37;96249.59;;;17.33;100.00
33185;BME280;19550;42.872;25.494;2023-08-08T00:06:04;96244.56;;;17.42;100.00
33185;BME280;19550;42.872;25.494;2023-08-08T00:08:31;96246.72;;;17.29;100.00
33185;BME280;19550;42.872;25.494;2023-08-08T00:10:57;96244.47;;;17.35;100.00
33185;BME280;19550;42.872;25.494;2023-08-08T00:13:25;96232.94;;;17.40;100.00
33185;BME280;19550;42.872;25.494;2023-08-08T00:15:52;96235.09;;;17.27;100.00
33185;BME280;19550;42.872;25.494;2023-08-08T00:18:19;96242.16;;;17.40;100.00
33185;BME280;19550;42.872;25.494;2023-08-08T00:20:46;96247.47;;;17.45;100.00
33185;BME280;19550;42.872;25.494;2023-08-08T00:23:13;96250.63;;;17.44;100.00
33185;BME280;19550;42.872;25.494;2023-08-08T00:25:39;96252.97;;;17.42;100.00
33185;BME280;19550;42.872;25.494;2023-08-08T00:28:06;96249.75;;;17.40;100.00
33185;BME280;19550;42.872;25.494;2023-08-08T00:30:35;96238.56;;;17.40;100.00
33185;BME280;19550;42.872;25.494;2023-08-08T00:33:01;96241.00;;;17.41;100.00
33185;BME280;19550;42.872;25.494;2023-08-08T00:35:28;96247.84;;;17.44;100.00
33185;BME280;19550;42.872;25.494;2023-08-08T00:37:55;96241.78;;;17.42;100.00
33185;BME280;19550;42.872;25.494;2023-08-08T00:40:22;96231.97;;;17.32;100.00
33185;BME280;19550;42.872;25.494;2023-08-08T00:42:49;96236.78;;;17.32;100.00
33185;BME280;19550;42.872;25.494;2023-08-08T00:45:16;96240.53;;;17.20;100.00
33185;BME280;19550;42.872;25.494;2023-08-08T00:47:44;96241.19;;;17.14;100.00
33185;BME280;19550;42.872;25.494;2023-08-08T00:50:11;96231.47;;;17.07;100.00
33185;BME280;19550;42.872;25.494;2023-08-08T00:52:40;96241.19;;;17.14;100.00
33185;BME280;19550;42.872;25.494;2023-08-08T00:55:08;96241.09;;;17.10;100.00
33185;BME280;19550;42.872;25.494;2023-08-08T00:57:35;96249.50;;;17.10;100.00
33185;BME280;19550;42.872;25.494;2023-08-08T01:00:05;96241.09;;;17.10;100.00
33185;BME280;19550;42.872;25.494;2023-08-08T01:02:33;96238.66;;;17.08;100.00
33185;BME280;19550;42.872;25.494;2023-08-08T01:05:02;96244.03;;;16.98;100.00
33185;BME280;19550;42.872;25.494;2023-08-08T01:07:33;96234.66;;;16.90;100.00
33185;BME280;19550;42.872;25.494;2023-08-08T01:10:06;96237.63;;;16.97;100.00
33185;BME280;19550;42.872;25.494;2023-08-08T01:12:38;96253.19;;;16.95;100.00
33185;BME280;19550;42.872;25.494;2023-08-08T01:15:08;96246.50;;;16.84;100.00
33185;BME280;19550;42.872;25.494;2023-08-08T01:17:35;96251.75;;;16.69;100.00
33185;BME280;19550;42.872;25.494;2023-08-08T01:20:05;96262.44;;;16.64;100.00
33185;BME280;19550;42.872;25.494;2023-08-08T01:22:36;96268.03;;;16.64;100.00
33185;BME280;19550;42.872;25.494;2023-08-08T01:25:06;96274.63;;;16.72;100.00
33185;BME280;19550;42.872;25.494;2023-08-08T01:27:34;96258.50;;;16.84;100.00
33185;BME280;19550;42.872;25.494;2023-08-08T01:30:01;96253.09;;;16.91;100.00
33185;BME280;19550;42.872;25.494;2023-08-08T01:32:29;96278.56;;;16.86;100.00
33185;BME280;19550;42.872;25.494;2023-08-08T01:34:56;96283.44;;;16.58;100.00
33185;BME280;19550;42.872;25.494;2023-08-08T01:37:28;96289.59;;;16.48;100.00
33185;BME280;19550;42.872;25.494;2023-08-08T01:39:57;96282.44;;;16.50;100.00
33185;BME280;19550;42.872;25.494;2023-08-08T01:42:27;96285.56;;;16.61;100.00
33185;BME280;19550;42.872;25.494;2023-08-08T01:44:55;96275.22;;;16.49;100.00
33185;BME280;19550;42.872;25.494;2023-08-08T01:47:22;96270.91;;;16.52;100.00
33185;BME280;19550;42.872;25.494;2023-08-08T01:49:49;96268.91;;;16.52;100.00
33185;BME280;19550;42.872;25.494;2023-08-08T01:52:16;96259.00;;;16.55;100.00
33185;BME280;19550;42.872;25.494;2023-08-08T01:54:43;96279.47;;;16.59;100.00
33185;BME280;19550;42.872;25.494;2023-08-08T01:57:10;96271.53;;;16.45;100.00
33185;BME280;19550;42.872;25.494;2023-08-08T01:59:38;96263.06;;;16.42;100.00
33185;BME280;19550;42.872;25.494;2023-08-08T02:02:05;96246.63;;;16.40;100.00
33185;BME280;19550;42.872;25.494;2023-08-08T02:04:32;96257.28;;;16.35;100.00
33185;BME280;19550;42.872;25.494;2023-08-08T02:06:59;96250.34;;;16.13;100.00
33185;BME280;19550;42.872;25.494;2023-08-08T02:09:26;96245.41;;;16.22;100.00
33185;BME280;19550;42.872;25.494;2023-08-08T02:11:52;96248.63;;;16.24;100.00
33185;BME280;19550;42.872;25.494;2023-08-08T02:14:19;96259.72;;;16.20;100.00
33185;BME280;19550;42.872;25.494;2023-08-08T02:16:47;96247.81;;;16.23;100.00
33185;BME280;19550;42.872;25.494;2023-08-08T02:19:14;96235.81;;;16.39;100.00
33185;BME280;19550;42.872;25.494;2023-08-08T02:21:41;96242.75;;;16.29;100.00
33185;BME280;19550;42.872;25.494;2023-08-08T02:24:08;96249.59;;;16.16;100.00
33185;BME280;19550;42.872;25.494;2023-08-08T02:26:35;96255.03;;;16.09;100.00
33185;BME280;19550;42.872;25.494;2023-08-08T02:29:02;96255.28;;;16.04;100.00
33185;BME280;19550;42.872;25.494;2023-08-08T02:31:28;96260.72;;;16.12;100.00
33185;BME280;19550;42.872;25.494;2023-08-08T02:33:57;96266.03;;;16.02;100.00
33185;BME280;19550;42.872;25.494;2023-08-08T02:36:23;96266.38;;;16.00;100.00
33185;BME280;19550;42.872;25.494;2023-08-08T02:38:50;96250.81;;;16.15;100.00
33185;BME280;19550;42.872;25.494;2023-08-08T02:41:18;96251.69;;;16.19;100.00
33185;BME280;19550;42.872;25.494;2023-08-08T02:43:48;96260.78;;;16.16;100.00
33185;BME280;19550;42.872;25.494;2023-08-08T02:46:15;96265.03;;;16.10;100.00
33185;BME280;19550;42.872;25.494;2023-08-08T02:48:42;96270.69;;;15.98;100.00
33185;BME280;19550;42.872;25.494;2023-08-08T02:51:10;96260.16;;;16.22;100.00
33185;BME280;19550;42.872;25.494;2023-08-08T02:53:37;96266.84;;;16.18;100.00
33185;BME280;19550;42.872;25.494;2023-08-08T02:56:04;96259.44;;;16.10;100.00
33185;BME280;19550;42.872;25.494;2023-08-08T02:58:32;96268.44;;;16.03;100.00
33185;BME280;19550;42.872;25.494;2023-08-08T03:00:58;96283.25;;;16.04;100.00
33185;BME280;19550;42.872;25.494;2023-08-08T03:03:25;96287.00;;;15.96;100.00
33185;BME280;19550;42.872;25.494;2023-08-08T03:05:52;96293.34;;;15.93;100.00
33185;BME280;19550;42.872;25.494;2023-08-08T03:08:20;96304.06;;;15.90;100.00
33185;BME280;19550;42.872;25.494;2023-08-08T03:10:47;96308.94;;;16.09;100.00
33185;BME280;19550;42.872;25.494;2023-08-08T03:13:14;96312.22;;;16.11;100.00
33185;BME280;19550;42.872;25.494;2023-08-08T03:15:41;96318.28;;;16.13;100.00
33185;BME280;19550;42.872;25.494;2023-08-08T03:18:07;96310.97;;;16.24;100.00
33185;BME280;19550;42.872;25.494;2023-08-08T03:20:34;96319.81;;;16.26;100.00
33185;BME280;19550;42.872;25.494;2023-08-08T03:23:01;96326.03;;;16.36;100.00
33185;BME280;19550;42.872;25.494;2023-08-08T03:25:29;96334.00;;;16.34;100.00
33185;BME280;19550;42.872;25.494;2023-08-08T03:27:56;96341.47;;;16.29;100.00
33185;BME280;19550;42.872;25.494;2023-08-08T03:30:23;96341.34;;;16.10;100.00
33185;BME280;19550;42.872;25.494;2023-08-08T03:32:50;96338.34;;;16.03;100.00
33185;BME280;19550;42.872;25.494;2023-08-08T03:35:16;96338.53;;;15.95;100.00
33185;BME280;19550;42.872;25.494;2023-08-08T03:37:43;96351.69;;;15.94;100.00
33185;BME280;19550;42.872;25.494;2023-08-08T03:40:11;96370.09;;;15.95;100.00
33185;BME280;19550;42.872;25.494;2023-08-08T03:42:40;96376.38;;;15.92;100.00
33185;BME280;19550;42.872;25.494;2023-08-08T03:45:08;96374.63;;;16.00;100.00
33185;BME280;19550;42.872;25.494;2023-08-08T03:47:35;96377.06;;;16.01;100.00
33185;BME280;19550;42.872;25.494;2023-08-08T03:50:02;96371.00;;;15.99;100.00
33185;BME280;19550;42.872;25.494;2023-08-08T03:52:29;96374.41;;;15.93;100.00
33185;BME280;19550;42.872;25.494;2023-08-08T03:54:56;96374.75;;;15.91;100.00
33185;BME280;19550;42.872;25.494;2023-08-08T03:57:23;96376.84;;;15.94;100.00
33185;BME280;19550;42.872;25.494;2023-08-08T03:59:52;96384.44;;;15.94;100.00
33185;BME280;19550;42.872;25.494;2023-08-08T04:02:19;96385.47;;;15.89;100.00
33185;BME280;19550;42.872;25.494;2023-08-08T04:04:45;96380.03;;;15.80;100.00
33185;BME280;19550;42.872;25.494;2023-08-08T04:07:12;96389.00;;;15.86;100.00
33185;BME280;19550;42.872;25.494;2023-08-08T04:09:39;96395.88;;;15.88;100.00
33185;BME280;19550;42.872;25.494;2023-08-08T04:12:06;96405.25;;;15.96;100.00
33185;BME280;19550;42.872;25.494;2023-08-08T04:14:33;96399.91;;;15.91;100.00
33185;BME280;19550;42.872;25.494;2023-08-08T04:17:02;96406.38;;;15.79;100.00
33185;BME280;19550;42.872;25.494;2023-08-08T04:19:30;96408.34;;;15.79;100.00
33185;BME280;19550;42.872;25.494;2023-08-08T04:21:57;96418.84;;;15.70;100.00
33185;BME280;19550;42.872;25.494;2023-08-08T04:24:24;96424.13;;;15.59;100.00
33185;BME280;19550;42.872;25.494;2023-08-08T04:26:51;96422.63;;;15.62;100.00
33185;BME280;19550;42.872;25.494;2023-08-08T04:29:18;96421.28;;;15.71;100.00
33185;BME280;19550;42.872;25.494;2023-08-08T04:31:44;96431.00;;;15.62;100.00
33185;BME280;19550;42.872;25.494;2023-08-08T04:34:13;96430.28;;;15.65;100.00
33185;BME280;19550;42.872;25.494;2023-08-08T04:36:39;96431.59;;;15.55;100.00
33185;BME280;19550;42.872;25.494;2023-08-08T04:39:06;96432.03;;;15.57;100.00
33185;BME280;19550;42.872;25.494;2023-08-08T04:41:33;96430.53;;;15.60;100.00
33185;BME280;19550;42.872;25.494;2023-08-08T04:44:00;96434.22;;;15.64;100.00
33185;BME280;19550;42.872;25.494;2023-08-08T04:46:27;96423.06;;;15.64;100.00
33185;BME280;19550;42.872;25.494;2023-08-08T04:48:53;96424.22;;;15.63;100.00
33185;BME280;19550;42.872;25.494;2023-08-08T04:51:22;96436.09;;;15.60;100.00
33185;BME280;19550;42.872;25.494;2023-08-08T04:53:49;96436.81;;;15.57;100.00
33185;BME280;19550;42.872;25.494;2023-08-08T04:56:16;96442.38;;;15.57;100.00
33185;BME280;19550;42.872;25.494;2023-08-08T04:58:43;96452.66;;;15.53;100.00
33185;BME280;19550;42.872;25.494;2023-08-08T05:01:09;96443.00;;;15.62;100.00
33185;BME280;19550;42.872;25.494;2023-08-08T05:03:39;96440.75;;;15.68;100.00
33185;BME280;19550;42.872;25.494;2023-08-08T05:06:06;96445.88;;;15.66;100.00
33185;BME280;19550;42.872;25.494;2023-08-08T05:08:34;96461.59;;;15.58;100.00
33185;BME280;19550;42.872;25.494;2023-08-08T05:11:01;96463.34;;;15.63;100.00
33185;BME280;19550;42.872;25.494;2023-08-08T05:13:28;96461.22;;;15.72;100.00
33185;BME280;19550;42.872;25.494;2023-08-08T05:15:54;96487.69;;;15.74;100.00
33185;BME280;19550;42.872;25.494;2023-08-08T05:18:21;96486.66;;;15.55;100.00
33185;BME280;19550;42.872;25.494;2023-08-08T05:20:48;96485.25;;;15.61;100.00
33185;BME280;19550;42.872;25.494;2023-08-08T05:23:15;96492.81;;;15.60;100.00
33185;BME280;19550;42.872;25.494;2023-08-08T05:25:43;96507.09;;;15.71;100.00
33185;BME280;19550;42.872;25.494;2023-08-08T05:28:11;96500.13;;;15.77;100.00
33185;BME280;19550;42.872;25.494;2023-08-08T05:30:37;96492.66;;;15.81;100.00
33185;BME280;19550;42.872;25.494;2023-08-08T05:33:04;96485.28;;;16.01;100.00
33185;BME280;19550;42.872;25.494;2023-08-08T05:35:31;96489.34;;;16.03;100.00
33185;BME280;19550;42.872;25.494;2023-08-08T05:37:58;96487.31;;;16.16;100.00
33185;BME280;19550;42.872;25.494;2023-08-08T05:40:25;96474.53;;;16.15;100.00
33185;BME280;19550;42.872;25.494;2023-08-08T05:42:53;96491.75;;;16.17;100.00
33185;BME280;19550;42.872;25.494;2023-08-08T05:45:20;96495.88;;;16.07;100.00
33185;BME280;19550;42.872;25.494;2023-08-08T05:47:47;96497.34;;;16.17;100.00
33185;BME280;19550;42.872;25.494;2023-08-08T05:50:14;96498.84;;;16.26;100.00
33185;BME280;19550;42.872;25.494;2023-08-08T05:52:41;96498.38;;;16.24;100.00
33185;BME280;19550;42.872;25.494;2023-08-08T05:55:08;96495.97;;;16.11;100.00
33185;BME280;19550;42.872;25.494;2023-08-08T05:57:35;96503.56;;;15.98;100.00
33185;BME280;19550;42.872;25.494;2023-08-08T06:00:05;96511.06;;;15.94;100.00
33185;BME280;19550;42.872;25.494;2023-08-08T06:02:36;96506.72;;;15.97;100.00
33185;BME280;19550;42.872;25.494;2023-08-08T06:05:03;96511.03;;;16.06;100.00
33185;BME280;19550;42.872;25.494;2023-08-08T06:07:31;96510.75;;;16.11;100.00
33185;BME280;19550;42.872;25.494;2023-08-08T06:09:57;96512.69;;;16.23;100.00
33185;BME280;19550;42.872;25.494;2023-08-08T06:12:24;96520.88;;;16.16;100.00
33185;BME280;19550;42.872;25.494;2023-08-08T06:14:51;96516.78;;;16.25;100.00
33185;BME280;19550;42.872;25.494;2023-08-08T06:17:19;96507.44;;;16.34;100.00
33185;BME280;19550;42.872;25.494;2023-08-08T06:19:48;96512.97;;;16.46;100.00
33185;BME280;19550;42.872;25.494;2023-08-08T06:22:15;96516.66;;;16.34;100.00
33185;BME280;19550;42.872;25.494;2023-08-08T06:24:42;96528.75;;;16.38;100.00
33185;BME280;19550;42.872;25.494;2023-08-08T06:27:09;96533.06;;;16.36;100.00
33185;BME280;19550;42.872;25.494;2023-08-08T06:29:36;96542.88;;;16.29;100.00
33185;BME280;19550;42.872;25.494;2023-08-08T06:32:03;96543.69;;;16.30;100.00
33185;BME280;19550;42.872;25.494;2023-08-08T06:34:31;96542.56;;;16.19;100.00
33185;BME280;19550;42.872;25.494;2023-08-08T06:36:58;96547.00;;;16.20;100.00
33185;BME280;19550;42.872;25.494;2023-08-08T06:39:25;96552.84;;;16.15;100.00
33185;BME280;19550;42.872;25.494;2023-08-08T06:41:52;96543.50;;;16.11;100.00
33185;BME280;19550;42.872;25.494;2023-08-08T06:44:21;96550.38;;;16.13;100.00
33185;BME280;19550;42.872;25.494;2023-08-08T06:46:48;96548.50;;;16.17;100.00
33185;BME280;19550;42.872;25.494;2023-08-08T06:49:14;96536.97;;;16.19;100.00
33185;BME280;19550;42.872;25.494;2023-08-08T06:51:43;96533.56;;;16.25;100.00
33185;BME280;19550;42.872;25.494;2023-08-08T06:54:09;96541.25;;;16.28;100.00
33185;BME280;19550;42.872;25.494;2023-08-08T06:56:36;96539.97;;;16.26;100.00
33185;BME280;19550;42.872;25.494;2023-08-08T06:59:03;96545.09;;;16.24;100.00
33185;BME280;19550;42.872;25.494;2023-08-08T07:01:30;96560.75;;;16.13;100.00
33185;BME280;19550;42.872;25.494;2023-08-08T07:03:56;96566.44;;;16.16;100.00
33185;BME280;19550;42.872;25.494;2023-08-08T07:06:23;96567.97;;;16.14;100.00
33185;BME280;19550;42.872;25.494;2023-08-08T07:08:52;96553.06;;;16.22;100.00
33185;BME280;19550;42.872;25.494;2023-08-08T07:11:18;96550.59;;;16.20;100.00
33185;BME280;19550;42.872;25.494;2023-08-08T07:13:46;96549.16;;;16.39;100.00
33185;BME280;19550;42.872;25.494;2023-08-08T07:16:12;96550.56;;;16.33;100.00
33185;BME280;19550;42.872;25.494;2023-08-08T07:18:39;96554.53;;;16.32;100.00
33185;BME280;19550;42.872;25.494;2023-08-08T07:21:06;96551.72;;;16.32;100.00
33185;BME280;19550;42.872;25.494;2023-08-08T07:23:33;96538.16;;;16.46;100.00
33185;BME280;19550;42.872;25.494;2023-08-08T07:26:01;96540.00;;;16.54;100.00
33185;BME280;19550;42.872;25.494;2023-08-08T07:28:28;96540.44;;;16.68;100.00
33185;BME280;19550;42.872;25.494;2023-08-08T07:30:55;96538.47;;;16.68;100.00
33185;BME280;19550;42.872;25.494;2023-08-08T07:33:22;96548.25;;;16.62;100.00
33185;BME280;19550;42.872;25.494;2023-08-08T07:35:49;96531.59;;;16.66;100.00
33185;BME280;19550;42.872;25.494;2023-08-08T07:38:16;96532.53;;;16.58;100.00
33185;BME280;19550;42.872;25.494;2023-08-08T07:40:43;96548.66;;;16.61;100.00
33185;BME280;19550;42.872;25.494;2023-08-08T07:43:12;96543.25;;;16.68;100.00
33185;BME280;19550;42.872;25.494;2023-08-08T07:45:39;96546.00;;;16.80;100.00
33185;BME280;19550;42.872;25.494;2023-08-08T07:48:06;96546.19;;;16.87;100.00
33185;BME280;19550;42.872;25.494;2023-08-08T07:50:33;96555.16;;;16.93;100.00
33185;BME280;19550;42.872;25.494;2023-08-08T07:53:00;96554.78;;;16.94;100.00
33185;BME280;19550;42.872;25.494;2023-08-08T07:55:27;96539.16;;;17.09;100.00
33185;BME280;19550;42.872;25.494;2023-08-08T07:57:54;96542.16;;;17.16;100.00
33185;BME280;19550;42.872;25.494;2023-08-08T08:00:22;96557.91;;;17.21;100.00
33185;BME280;19550;42.872;25.494;2023-08-08T08:02:49;96543.16;;;17.24;100.00
33185;BME280;19550;42.872;25.494;2023-08-08T08:05:17;96546.16;;;17.31;100.00
33185;BME280;19550;42.872;25.494;2023-08-08T08:07:44;96553.94;;;17.22;100.00
33185;BME280;19550;42.872;25.494;2023-08-08T08:10:11;96545.59;;;17.25;100.00
33185;BME280;19550;42.872;25.494;2023-08-08T08:12:40;96545.06;;;17.35;100.00
33185;BME280;19550;42.872;25.494;2023-08-08T08:15:08;96539.63;;;17.42;100.00
33185;BME280;19550;42.872;25.494;2023-08-08T08:17:37;96551.03;;;17.49;100.00
33185;BME280;19550;42.872;25.494;2023-08-08T08:20:05;96538.47;;;17.43;100.00
33185;BME280;19550;42.872;25.494;2023-08-08T08:22:37;96535.41;;;17.64;100.00
33185;BME280;19550;42.872;25.494;2023-08-08T08:25:05;96538.84;;;17.73;100.00
33185;BME280;19550;42.872;25.494;2023-08-08T08:27:34;96536.81;;;17.90;100.00
33185;BME280;19550;42.872;25.494;2023-08-08T08:30:01;96542.78;;;18.04;100.00
33185;BME280;19550;42.872;25.494;2023-08-08T08:32:32;96547.94;;;18.02;100.00
33185;BME280;19550;42.872;25.494;2023-08-08T08:35:00;96532.53;;;18.11;100.00
33185;BME280;19550;42.872;25.494;2023-08-08T08:37:32;96536.81;;;18.05;100.00
33185;BME280;19550;42.872;25.494;2023-08-08T08:39:58;96539.13;;;18.19;100.00
33185;BME280;19550;42.872;25.494;2023-08-08T08:42:26;96518.34;;;18.78;100.00
33185;BME280;19550;42.872;25.494;2023-08-08T08:44:57;96532.09;;;19.25;100.00
33185;BME280;19550;42.872;25.494;2023-08-08T08:47:25;96542.84;;;19.19;100.00
33185;BME280;19550;42.872;25.494;2023-08-08T08:49:52;96535.63;;;19.64;100.00
33185;BME280;19550;42.872;25.494;2023-08-08T08:52:21;96541.94;;;19.80;99.01
33185;BME280;19550;42.872;25.494;2023-08-08T08:54:48;96540.56;;;19.70;97.49
33185;BME280;19550;42.872;25.494;2023-08-08T08:57:15;96533.44;;;20.03;98.82
33185;BME280;19550;42.872;25.494;2023-08-08T08:59:42;96540.09;;;19.91;92.08
33185;BME280;19550;42.872;25.494;2023-08-08T09:02:10;96526.03;;;19.68;93.22
33185;BME280;19550;42.872;25.494;2023-08-08T09:04:39;96526.16;;;20.02;98.18
33185;BME280;19550;42.872;25.494;2023-08-08T09:07:06;96521.56;;;20.43;99.04
33185;BME280;19550;42.872;25.494;2023-08-08T09:09:35;96535.91;;;20.60;89.33
33185;BME280;19550;42.872;25.494;2023-08-08T09:12:03;96529.59;;;21.04;93.11
33185;BME280;19550;42.872;25.494;2023-08-08T09:14:31;96537.13;;;20.93;88.04
33185;BME280;19550;42.872;25.494;2023-08-08T09:16:58;96535.22;;;21.04;90.80
33185;BME280;19550;42.872;25.494;2023-08-08T09:19:25;96531.44;;;21.23;89.34
33185;BME280;19550;42.872;25.494;2023-08-08T09:21:52;96536.31;;;21.26;82.77
33185;BME280;19550;42.872;25.494;2023-08-08T09:24:19;96531.41;;;20.86;84.67
33185;BME280;19550;42.872;25.494;2023-08-08T09:26:48;96539.13;;;20.92;83.97
33185;BME280;19550;42.872;25.494;2023-08-08T09:29:15;96543.91;;;21.22;83.38
33185;BME280;19550;42.872;25.494;2023-08-08T09:31:42;96542.84;;;21.00;77.88
33185;BME280;19550;42.872;25.494;2023-08-08T09:34:09;96544.88;;;20.70;81.93
33185;BME280;19550;42.872;25.494;2023-08-08T09:36:36;96542.75;;;20.59;83.15
33185;BME280;19550;42.872;25.494;2023-08-08T09:39:03;96527.50;;;21.34;87.51
33185;BME280;19550;42.872;25.494;2023-08-08T09:41:31;96525.03;;;21.66;85.50
33185;BME280;19550;42.872;25.494;2023-08-08T09:43:59;96536.94;;;21.49;81.55
33185;BME280;19550;42.872;25.494;2023-08-08T09:46:29;96528.63;;;22.11;87.49
33185;BME280;19550;42.872;25.494;2023-08-08T09:48:57;96540.78;;;22.22;78.43
33185;BME280;19550;42.872;25.494;2023-08-08T09:51:25;96543.38;;;22.48;77.65
33185;BME280;19550;42.872;25.494;2023-08-08T09:53:53;96536.44;;;22.35;76.65
33185;BME280;19550;42.872;25.494;2023-08-08T09:56:20;96529.59;;;22.36;77.18
33185;BME280;19550;42.872;25.494;2023-08-08T09:58:48;96543.22;;;22.20;79.30
33185;BME280;19550;42.872;25.494;2023-08-08T10:01:16;96533.44;;;21.63;70.43
33185;BME280;19550;42.872;25.494;2023-08-08T10:03:45;96532.16;;;21.97;79.07
33185;BME280;19550;42.872;25.494;2023-08-08T10:06:13;96526.66;;;22.22;75.26
33185;BME280;19550;42.872;25.494;2023-08-08T10:08:40;96535.31;;;22.54;72.17
33185;BME280;19550;42.872;25.494;2023-08-08T10:11:09;96530.69;;;22.17;72.62
33185;BME280;19550;42.872;25.494;2023-08-08T10:13:37;96532.25;;;22.15;72.22
33185;BME280;19550;42.872;25.494;2023-08-08T10:16:07;96526.72;;;22.29;72.21
33185;BME280;19550;42.872;25.494;2023-08-08T10:18:35;96540.25;;;22.64;68.84
33185;BME280;19550;42.872;25.494;2023-08-08T10:21:04;96533.22;;;23.23;73.40
33185;BME280;19550;42.872;25.494;2023-08-08T10:23:36;96538.13;;;23.37;66.24
33185;BME280;19550;42.872;25.494;2023-08-08T10:26:04;96534.50;;;23.44;65.71
33185;BME280;19550;42.872;25.494;2023-08-08T10:28:32;96529.31;;;23.60;64.10
33185;BME280;19550;42.872;25.494;2023-08-08T10:31:01;96530.91;;;23.57;64.91
33185;BME280;19550;42.872;25.494;2023-08-08T10:33:40;96529.66;;;23.48;64.60
33185;BME280;19550;42.872;25.494;2023-08-08T10:36:08;96520.41;;;23.68;67.66
33185;BME280;19550;42.872;25.494;2023-08-08T10:38:40;96528.50;;;23.77;63.87
33185;BME280;19550;42.872;25.494;2023-08-08T10:41:10;96518.38;;;24.15;59.53
33185;BME280;19550;42.872;25.494;2023-08-08T10:43:38;96526.50;;;24.31;61.10
33185;BME280;19550;42.872;25.494;2023-08-08T10:46:09;96521.63;;;23.89;61.34
33185;BME280;19550;42.872;25.494;2023-08-08T10:48:53;96521.22;;;23.83;60.31
33185;BME280;19550;42.872;25.494;2023-08-08T10:51:20;96524.06;;;23.80;59.18
33185;BME280;19550;42.872;25.494;2023-08-08T10:53:51;96515.56;;;24.33;62.32
33185;BME280;19550;42.872;25.494;2023-08-08T10:56:18;96510.28;;;24.45;62.79
33185;BME280;19550;42.872;25.494;2023-08-08T10:58:48;96507.31;;;24.91;65.33
33185;BME280;19550;42.872;25.494;2023-08-08T11:01:15;96516.34;;;25.42;57.44
33185;BME280;19550;42.872;25.494;2023-08-08T11:03:45;96513.78;;;24.85;54.13
33185;BME280;19550;42.872;25.494;2023-08-08T11:06:16;96513.88;;;24.49;53.68
33185;BME280;19550;42.872;25.494;2023-08-08T11:08:43;96508.97;;;24.71;54.82
33185;BME280;19550;42.872;25.494;2023-08-08T11:11:10;96514.84;;;25.23;53.16
33185;BME280;19550;42.872;25.494;2023-08-08T11:13:37;96514.81;;;25.30;51.32
33185;BME280;19550;42.872;25.494;2023-08-08T11:16:04;96505.59;;;25.08;49.34
33185;BME280;19550;42.872;25.494;2023-08-08T11:18:31;96512.56;;;24.93;49.82
33185;BME280;19550;42.872;25.494;2023-08-08T11:20:58;96521.88;;;24.83;52.63
33185;BME280;19550;42.872;25.494;2023-08-08T11:23:26;96508.09;;;24.99;51.85
33185;BME280;19550;42.872;25.494;2023-08-08T11:25:54;96508.25;;;25.40;48.20
33185;BME280;19550;42.872;25.494;2023-08-08T11:28:21;96507.44;;;25.40;49.76
33185;BME280;19550;42.872;25.494;2023-08-08T11:30:48;96517.97;;;25.43;47.56
33185;BME280;19550;42.872;25.494;2023-08-08T11:33:16;96516.50;;;25.17;46.45
33185;BME280;19550;42.872;25.494;2023-08-08T11:35:44;96519.75;;;25.19;48.73
33185;BME280;19550;42.872;25.494;2023-08-08T11:38:14;96516.88;;;25.22;47.35
33185;BME280;19550;42.872;25.494;2023-08-08T11:40:43;96513.81;;;24.74;49.48
33185;BME280;19550;42.872;25.494;2023-08-08T11:43:11;96505.91;;;25.24;48.12
33185;BME280;19550;42.872;25.494;2023-08-08T11:45:39;96500.53;;;25.41;49.08
33185;BME280;19550;42.872;25.494;2023-08-08T11:48:08;96493.94;;;26.09;47.63
33185;BME280;19550;42.872;25.494;2023-08-08T11:50:37;96499.78;;;26.77;47.44
33185;BME280;19550;42.872;25.494;2023-08-08T11:53:04;96496.50;;;26.79;44.00
33185;BME280;19550;42.872;25.494;2023-08-08T11:55:31;96495.34;;;26.73;44.29
33185;BME280;19550;42.872;25.494;2023-08-08T11:58:00;96488.50;;;26.67;44.75
33185;BME280;19550;42.872;25.494;2023-08-08T12:00:28;96490.81;;;26.79;43.93
33185;BME280;19550;42.872;25.494;2023-08-08T12:02:56;96482.50;;;27.25;43.86
33185;BME280;19550;42.872;25.494;2023-08-08T12:05:24;96496.44;;;26.48;45.85
33185;BME280;19550;42.872;25.494;2023-08-08T12:07:51;96492.56;;;26.32;46.23
33185;BME280;19550;42.872;25.494;2023-08-08T12:10:20;96485.03;;;26.07;45.35
33185;BME280;19550;42.872;25.494;2023-08-08T12:12:52;96493.66;;;26.41;45.98
33185;BME280;19550;42.872;25.494;2023-08-08T12:15:22;96502.34;;;25.79;45.57
33185;BME280;19550;42.872;25.494;2023-08-08T12:17:49;96493.53;;;25.63;46.27
33185;BME280;19550;42.872;25.494;2023-08-08T12:20:16;96493.47;;;25.66;48.56
33185;BME280;19550;42.872;25.494;2023-08-08T12:22:43;96488.09;;;26.31;47.60
33185;BME280;19550;42.872;25.494;2023-08-08T12:25:10;96495.41;;;26.32;46.09
33185;BME280;19550;42.872;25.494;2023-08-08T12:27:38;96479.31;;;26.86;44.70
33185;BME280;19550;42.872;25.494;2023-08-08T12:30:06;96493.19;;;26.84;43.98
33185;BME280;19550;42.872;25.494;2023-08-08T12:32:34;96489.44;;;25.67;45.64
33185;BME280;19550;42.872;25.494;2023-08-08T12:35:01;96490.06;;;25.30;46.51
33185;BME280;19550;42.872;25.494;2023-08-08T12:37:28;96486.03;;;25.28;47.00
33185;BME280;19550;42.872;25.494;2023-08-08T12:39:55;96488.81;;;25.35;49.39
33185;BME280;19550;42.872;25.494;2023-08-08T12:42:22;96492.50;;;25.87;49.89
33185;BME280;19550;42.872;25.494;2023-08-08T12:44:49;96490.53;;;25.84;44.97